Time;durP1;ratioP1;P1;durP2;ratioP2;P2;SDS_P1;SDS_P2;PMS_P1;PMS_P2;Temp;Humidity;BMP_temperature;BMP_pressure;BME280_temperature;BME280_humidity;BME280_pressure;Samples;Min_cycle;Max_cycle;Signal;HPM_P1;HPM_P2
2022/06/21 00:00:53;;;;;;;5.50;3.70;;;;;;;11.97;90.32;98833.25;8504777;27;20174;-74
2022/06/21 00:04:56;;;;;;;5.85;3.33;;;;;;;11.89;89.71;98832.19;8497026;27;20047;-75
2022/06/21 00:08:57;;;;;;;7.47;3.80;;;;;;;11.92;89.36;98842.34;8526225;27;20054;-74
2022/06/21 00:12:58;;;;;;;9.70;3.10;;;;;;;11.88;88.63;98841.41;8508238;27;20126;-74
2022/06/21 00:16:59;;;;;;;5.68;2.90;;;;;;;11.85;88.65;98842.03;8502559;27;20051;-74
2022/06/21 00:21:00;;;;;;;8.23;3.70;;;;;;;11.90;87.98;98833.75;8513899;27;20046;-74
2022/06/21 00:25:02;;;;;;;9.40;3.58;;;;;;;11.92;88.44;98826.09;8486168;27;20043;-74
2022/06/21 00:29:03;;;;;;;7.88;3.20;;;;;;;11.95;87.79;98820.03;8482581;27;20523;-74
2022/06/21 00:33:04;;;;;;;4.45;2.88;;;;;;;12.07;85.33;98822.84;8511583;27;20071;-74
2022/06/21 00:37:12;;;;;;;4.50;2.90;;;;;;;12.02;85.77;98831.16;8509105;27;20054;-74
2022/06/21 00:41:14;;;;;;;6.73;3.50;;;;;;;11.98;86.00;98841.06;8489809;27;20496;-74
2022/06/21 00:45:34;;;;;;;5.30;3.45;;;;;;;11.93;86.60;98843.94;8490790;27;20788;-73
2022/06/21 00:49:36;;;;;;;;;;;;;;;11.90;86.64;98844.56;8525721;27;20050;-74
2022/06/21 00:53:40;;;;;;;4.03;2.85;;;;;;;11.89;86.35;98845.72;8494462;27;20395;-74
2022/06/21 00:57:52;;;;;;;4.90;3.03;;;;;;;11.71;86.83;98841.41;8504338;27;20073;-73
2022/06/21 01:02:03;;;;;;;19.05;3.42;;;;;;;11.70;86.51;98839.81;8509975;27;20126;-73
2022/06/21 01:06:10;;;;;;;4.57;2.95;;;;;;;11.68;86.59;98847.47;8512743;27;20098;-73
2022/06/21 01:10:13;;;;;;;6.95;3.30;;;;;;;11.72;86.09;98848.41;8491047;27;20043;-74
2022/06/21 01:14:15;;;;;;;8.40;2.83;;;;;;;11.79;85.34;98843.34;8459002;27;20038;-73
2022/06/21 01:18:18;;;;;;;4.43;3.13;;;;;;;11.83;84.91;98860.53;8486255;27;20405;-74
2022/06/21 01:22:28;;;;;;;5.03;2.60;;;;;;;11.81;85.07;98850.00;8483504;27;20048;-74
2022/06/21 01:26:43;;;;;;;4.55;3.00;;;;;;;11.76;85.97;98843.97;8464429;27;20085;-74
2022/06/21 01:30:48;;;;;;;9.00;3.80;;;;;;;11.72;87.09;98840.31;8458590;28;20043;-73
2022/06/21 01:34:49;;;;;;;10.13;4.50;;;;;;;11.59;88.67;98833.16;8399372;28;20070;-74
2022/06/21 01:38:54;;;;;;;5.18;3.85;;;;;;;11.44;90.60;98832.56;8441955;28;20077;-73
2022/06/21 01:43:02;;;;;;;8.38;4.60;;;;;;;11.28;92.12;98827.97;8457612;28;20043;-74
2022/06/21 01:47:08;;;;;;;9.93;5.40;;;;;;;11.20;92.78;98837.69;8458825;28;20050;-74
2022/06/21 01:51:13;;;;;;;7.95;5.30;;;;;;;11.20;92.99;98831.47;8464134;27;20043;-75
2022/06/21 01:55:23;;;;;;;6.47;4.85;;;;;;;11.14;93.30;98828.16;8484114;27;20184;-74
2022/06/21 01:59:31;;;;;;;8.25;5.53;;;;;;;11.07;93.66;98837.84;8474775;27;20554;-74
2022/06/21 02:03:34;;;;;;;12.83;6.43;;;;;;;11.06;94.17;98837.03;8471276;27;20391;-74
2022/06/21 02:07:42;;;;;;;14.57;7.68;;;;;;;10.94;94.29;98839.59;8480050;27;20065;-74
2022/06/21 02:11:48;;;;;;;18.88;7.43;;;;;;;10.94;94.83;98850.41;8475499;27;20036;-74
2022/06/21 02:15:54;;;;;;;11.52;7.55;;;;;;;10.79;95.76;98842.72;8476310;27;20062;-74
2022/06/21 02:20:07;;;;;;;9.05;7.70;;;;;;;10.79;95.48;98842.72;8450601;27;20047;-74
2022/06/21 02:24:13;;;;;;;14.02;7.72;;;;;;;10.70;96.00;98852.75;8488915;27;20054;-74
2022/06/21 02:28:17;;;;;;;10.55;7.20;;;;;;;10.62;96.22;98854.31;8408567;28;20135;-74
2022/06/21 02:32:39;;;;;;;11.93;6.90;;;;;;;10.74;95.93;98868.00;8382692;28;20425;-74
2022/06/21 02:36:47;;;;;;;16.00;7.88;;;;;;;10.75;95.88;98858.00;8364370;28;20136;-74
2022/06/21 02:40:51;;;;;;;13.30;7.70;;;;;;;10.73;96.49;98854.81;8383382;28;20052;-74
2022/06/21 02:44:56;;;;;;;14.52;7.85;;;;;;;10.79;96.82;98853.53;8379376;28;20399;-74
2022/06/21 02:49:13;;;;;;;12.57;7.40;;;;;;;10.87;96.72;98844.66;8384092;28;20532;-74
2022/06/21 02:53:39;;;;;;;12.43;7.97;;;;;;;10.95;96.94;98857.38;8362561;28;20653;-74
2022/06/21 02:57:45;;;;;;;17.67;7.88;;;;;;;11.03;96.69;98848.50;8364551;28;20040;-74
2022/06/21 03:01:50;;;;;;;13.30;8.52;;;;;;;11.04;96.74;98844.69;8405693;28;20100;-74
2022/06/21 03:05:58;;;;;;;10.48;7.85;;;;;;;11.05;96.50;98851.66;8452547;27;20048;-74
2022/06/21 03:09:59;;;;;;;17.42;8.50;;;;;;;11.01;96.60;98845.31;8442897;28;20519;-74
2022/06/21 03:14:02;;;;;;;12.77;7.63;;;;;;;10.99;96.57;98853.75;8425845;28;20050;-74
2022/06/21 03:18:13;;;;;;;12.35;7.90;;;;;;;10.94;96.29;98855.81;8460914;27;20040;-74
2022/06/21 03:22:26;;;;;;;13.20;7.53;;;;;;;10.85;96.30;98847.69;8463473;28;20054;-73
2022/06/21 03:26:27;;;;;;;13.63;6.95;;;;;;;10.77;96.63;98850.38;8486613;27;20081;-73
2022/06/21 03:30:34;;;;;;;10.23;6.32;;;;;;;10.71;96.77;98846.22;8474225;27;20051;-74
2022/06/21 03:34:35;;;;;;;11.13;6.65;;;;;;;10.69;96.32;98843.84;8465863;27;20047;-73
2022/06/21 03:38:42;;;;;;;10.57;6.68;;;;;;;10.70;96.20;98839.22;8486968;27;20104;-74
2022/06/21 03:42:48;;;;;;;10.63;5.82;;;;;;;10.78;95.94;98851.97;8481145;27;20574;-74
2022/06/21 03:47:13;;;;;;;8.27;5.55;;;;;;;10.90;95.49;98854.81;8424871;28;20138;-74
2022/06/21 03:51:22;;;;;;;9.77;5.60;;;;;;;10.93;95.17;98848.81;8478076;28;20130;-73
2022/06/21 03:55:45;;;;;;;7.75;5.38;;;;;;;10.85;95.35;98857.69;8479545;28;20043;-73
2022/06/21 03:59:51;;;;;;;14.88;6.00;;;;;;;10.84;95.22;98862.28;8485130;27;20065;-74
2022/06/21 04:04:02;;;;;;;11.90;5.75;;;;;;;10.85;95.12;98863.09;8492554;28;20059;-72
2022/06/21 04:08:19;;;;;;;13.13;5.20;;;;;;;11.00;94.21;98881.53;8473396;28;20050;-73
2022/06/21 04:12:43;;;;;;;8.75;4.90;;;;;;;11.08;93.50;98878.06;8473136;28;20055;-73
2022/06/21 04:16:57;;;;;;;15.10;4.93;;;;;;;11.04;93.20;98879.81;8399741;28;20048;-72
2022/06/21 04:21:06;;;;;;;7.68;4.25;;;;;;;11.13;92.37;98886.00;8409327;28;20044;-72
2022/06/21 04:25:16;;;;;;;9.00;3.90;;;;;;;11.20;92.00;98891.75;8428118;28;20089;-72
2022/06/21 04:29:31;;;;;;;7.32;4.63;;;;;;;11.23;91.91;98896.50;8424498;28;20090;-72
2022/06/21 04:33:40;;;;;;;10.13;5.30;;;;;;;11.36;90.88;98911.00;8408858;28;20051;-72
2022/06/21 04:38:05;;;;;;;7.80;4.80;;;;;;;11.42;91.15;98891.56;8397559;28;20428;-74
2022/06/21 04:42:11;;;;;;;11.32;4.75;;;;;;;11.47;91.13;98879.00;8373829;28;20090;-73
2022/06/21 04:46:27;;;;;;;11.70;4.65;;;;;;;11.55;90.05;98886.31;8375317;28;20075;-73
2022/06/21 04:50:37;;;;;;;6.57;3.88;;;;;;;11.64;90.02;98889.78;8389671;28;20052;-73
2022/06/21 04:54:39;;;;;;;10.32;4.13;;;;;;;11.63;89.74;98899.03;8425654;28;20040;-72
2022/06/21 04:58:40;;;;;;;7.80;4.22;;;;;;;11.61;89.68;98890.44;8440243;28;20149;-73
2022/06/21 05:02:58;;;;;;;9.45;4.20;;;;;;;11.53;89.00;98883.13;8436203;28;20040;-73
2022/06/21 05:07:04;;;;;;;11.48;4.25;;;;;;;11.61;88.99;98879.63;8447288;28;20055;-73
2022/06/21 05:11:11;;;;;;;7.18;3.92;;;;;;;11.74;87.66;98873.25;8460091;28;20046;-72
2022/06/21 05:15:22;;;;;;;5.63;3.72;;;;;;;11.81;87.80;98887.09;8445759;28;20067;-72
2022/06/21 05:19:31;;;;;;;10.45;3.65;;;;;;;12.00;87.45;98892.16;8460744;27;20052;-72
2022/06/21 05:23:33;;;;;;;8.20;3.50;;;;;;;12.15;87.07;98899.75;8473303;27;20412;-72
2022/06/21 05:27:44;;;;;;;6.75;3.40;;;;;;;12.33;86.35;98895.03;8489629;27;20130;-72
2022/06/21 05:31:48;;;;;;;8.02;3.72;;;;;;;12.47;85.29;98890.22;8507293;27;20143;-72
2022/06/21 05:35:52;;;;;;;6.63;3.80;;;;;;;12.52;85.49;98903.59;8505130;27;20070;-72
2022/06/21 05:39:56;;;;;;;5.20;3.30;;;;;;;12.65;83.13;98907.97;8527267;27;20077;-72
2022/06/21 05:44:03;;;;;;;8.20;3.30;;;;;;;12.70;83.19;98911.28;8520463;27;20043;-73
2022/06/21 05:48:18;;;;;;;8.43;3.75;;;;;;;12.85;82.82;98918.03;8527043;27;20059;-73
2022/06/21 05:52:31;;;;;;;8.65;3.22;;;;;;;12.91;80.89;98916.75;8527253;27;20130;-72
2022/06/21 05:56:34;;;;;;;7.90;3.10;;;;;;;12.94;81.51;98924.22;8496897;27;20047;-73
2022/06/21 06:00:40;;;;;;;6.50;2.70;;;;;;;13.00;79.72;98914.78;8507756;27;20491;-72
2022/06/21 06:04:50;;;;;;;6.10;2.80;;;;;;;13.08;80.33;98916.63;8497361;27;20495;-72
2022/06/21 06:08:57;;;;;;;11.75;3.30;;;;;;;13.23;80.03;98922.63;8527373;27;20075;-73
2022/06/21 06:13:06;;;;;;;10.75;3.28;;;;;;;13.31;79.02;98932.63;8483881;27;20046;-73
2022/06/21 06:17:11;;;;;;;;;;;;;;;13.31;78.64;98919.06;8478985;27;20129;-73
2022/06/21 06:21:18;;;;;;;7.93;3.00;;;;;;;13.36;78.24;98937.84;8517730;27;20011;-72
2022/06/21 06:25:27;;;;;;;7.53;2.90;;;;;;;13.34;78.64;98927.31;8474692;27;20306;-72
2022/06/21 06:29:32;;;;;;;;;;;;;;;13.46;78.95;98932.03;8521609;27;20492;-72
2022/06/21 06:33:42;;;;;;;8.32;3.42;;;;;;;13.55;77.88;98935.44;8513273;27;20013;-72
2022/06/21 06:37:45;;;;;;;9.68;3.53;;;;;;;13.75;78.10;98928.41;8503826;27;20047;-72
2022/06/21 06:41:55;;;;;;;4.03;2.67;;;;;;;14.03;77.17;98923.19;8491366;27;20055;-73
2022/06/21 06:45:58;;;;;;;5.13;2.90;;;;;;;13.96;76.74;98940.81;8501404;27;20047;-72
2022/06/21 06:50:16;;;;;;;4.40;2.55;;;;;;;14.07;75.84;98940.38;8527992;27;20051;-72
2022/06/21 06:54:46;;;;;;;6.45;3.08;;;;;;;13.86;75.44;98946.66;8509794;27;20525;-73
2022/06/21 06:59:07;;;;;;;10.98;3.20;;;;;;;13.73;75.83;98953.19;8388599;28;20057;-72
2022/06/21 07:03:17;;;;;;;5.35;2.50;;;;;;;13.74;76.01;98960.22;8345833;28;20075;-72
2022/06/21 07:07:31;;;;;;;8.40;2.90;;;;;;;13.80;75.68;98958.84;8383395;28;20091;-72
2022/06/21 07:11:38;;;;;;;9.18;2.65;;;;;;;14.14;75.15;98967.81;8375082;28;20052;-72
2022/06/21 07:15:41;;;;;;;4.70;2.70;;;;;;;14.20;73.72;98961.03;8386698;28;20091;-72
2022/06/21 07:19:42;;;;;;;5.57;2.58;;;;;;;14.09;73.61;98959.88;8371223;28;20049;-73
2022/06/21 07:23:44;;;;;;;9.68;3.10;;;;;;;13.90;74.33;98969.31;8380878;28;20045;-72
2022/06/21 07:27:48;;;;;;;8.15;2.92;;;;;;;14.05;73.73;98969.81;8363674;28;20056;-72
2022/06/21 07:31:57;;;;;;;9.63;3.22;;;;;;;14.14;73.88;98968.59;8371708;28;20135;-72
2022/06/21 07:36:03;;;;;;;5.82;2.90;;;;;;;14.24;73.16;98978.25;8488947;27;20054;-73
2022/06/21 07:40:36;;;;;;;7.95;2.97;;;;;;;14.37;73.10;98971.75;8500562;27;20043;-72
2022/06/21 07:44:54;;;;;;;4.72;2.95;;;;;;;14.57;72.32;98981.75;8497913;27;20425;-72
2022/06/21 07:49:02;;;;;;;4.90;2.50;;;;;;;14.69;71.14;98989.91;8525122;27;20493;-73
2022/06/21 07:53:14;;;;;;;7.10;2.83;;;;;;;14.56;70.80;98985.59;8511965;27;20051;-72
2022/06/21 07:57:32;;;;;;;7.90;2.90;;;;;;;14.78;70.58;98982.44;8507248;27;20046;-72
2022/06/21 08:10:31;;;;;;;7.45;2.30;;;;;;;15.19;68.29;99002.38;8504828;27;20389;-72
2022/06/21 08:14:34;;;;;;;10.13;2.45;;;;;;;15.51;67.15;99004.16;8515378;27;20523;-71
2022/06/21 08:18:54;;;;;;;7.07;2.40;;;;;;;15.71;65.63;99004.34;8492535;27;20047;-71
2022/06/21 08:23:08;;;;;;;6.55;2.22;;;;;;;15.71;65.88;99012.50;8498050;27;20043;-72
2022/06/21 08:27:28;;;;;;;5.03;1.83;;;;;;;15.92;65.95;98999.50;8444237;27;20408;-73
2022/06/21 08:31:41;;;;;;;8.60;2.20;;;;;;;16.25;64.71;99005.50;8500906;27;20106;-72
2022/06/21 08:35:50;;;;;;;7.63;2.20;;;;;;;16.25;64.55;99005.50;8524088;27;20047;-73
2022/06/21 08:40:12;;;;;;;6.28;2.17;;;;;;;16.43;63.46;99017.69;8505150;27;20504;-73
2022/06/21 08:44:47;;;;;;;9.82;2.00;;;;;;;16.32;63.87;99027.50;8533849;27;20046;-73
2022/06/21 08:49:04;;;;;;;7.13;1.90;;;;;;;16.55;61.37;99024.22;8513879;27;20635;-72
2022/06/21 08:53:33;;;;;;;6.40;1.67;;;;;;;16.36;60.81;99028.38;8483951;27;20043;-73
2022/06/21 08:58:07;;;;;;;7.40;1.80;;;;;;;16.05;61.88;99033.75;8526291;27;20034;-72
2022/06/21 09:02:23;;;;;;;8.07;2.08;;;;;;;16.14;62.88;99034.38;8532380;27;20047;-72
2022/06/21 09:06:44;;;;;;;5.82;1.95;;;;;;;16.37;62.81;99034.63;8480657;27;20047;-72
2022/06/21 09:10:57;;;;;;;9.07;1.85;;;;;;;16.67;61.82;99026.88;8529638;27;20053;-72
2022/06/21 09:15:25;;;;;;;8.80;2.10;;;;;;;16.68;60.70;99023.00;8515470;27;20439;-72
2022/06/21 09:19:52;;;;;;;6.07;1.60;;;;;;;17.24;60.12;99029.06;8514626;27;20042;-72
2022/06/21 09:24:06;;;;;;;8.80;2.20;;;;;;;17.67;58.31;99031.63;8515077;27;20126;-73
2022/06/21 09:28:14;;;;;;;7.68;1.60;;;;;;;17.98;57.00;99030.72;8486279;27;20047;-72
2022/06/21 09:32:48;;;;;;;6.50;1.73;;;;;;;18.09;57.20;99042.66;8514162;27;20046;-72
2022/06/21 09:37:12;;;;;;;5.38;2.00;;;;;;;17.88;55.99;99044.94;8519182;27;20057;-72
2022/06/21 09:41:26;;;;;;;7.85;1.98;;;;;;;17.82;56.41;99032.72;8513536;27;20049;-72
2022/06/21 09:45:42;;;;;;;9.80;2.10;;;;;;;17.57;55.94;99042.28;8519301;27;20043;-72
2022/06/21 09:49:52;;;;;;;2.78;1.50;;;;;;;17.81;55.42;99036.63;8529457;27;20093;-72
2022/06/21 09:54:05;;;;;;;6.75;1.90;;;;;;;18.00;55.47;99038.56;8532057;27;20092;-72
2022/06/21 09:58:32;;;;;;;4.40;1.75;;;;;;;17.95;55.17;99030.66;8487748;27;20070;-72
2022/06/21 10:02:45;;;;;;;4.32;1.70;;;;;;;17.92;55.60;99021.25;8497274;27;20751;-71
2022/06/21 10:06:56;;;;;;;6.22;2.08;;;;;;;17.76;54.45;99056.03;8531505;27;20067;-72
2022/06/21 10:11:08;;;;;;;5.50;1.48;;;;;;;17.89;54.20;99043.81;8495146;27;20053;-71
2022/06/21 10:15:29;;;;;;;9.25;1.70;;;;;;;18.37;53.29;99042.44;8511315;27;20062;-72
2022/06/21 10:20:03;;;;;;;7.00;1.50;;;;;;;18.60;52.22;99050.72;8529033;27;20043;-73
2022/06/21 10:24:22;;;;;;;7.38;1.80;;;;;;;18.86;52.64;99034.38;8502388;27;20057;-72
2022/06/21 10:28:39;;;;;;;10.55;1.90;;;;;;;19.17;52.01;99029.78;8517933;27;20061;-72
2022/06/21 10:32:43;;;;;;;8.50;2.00;;;;;;;18.75;51.44;99027.94;8530203;27;20049;-72
2022/06/21 10:37:06;;;;;;;8.40;1.83;;;;;;;18.67;52.95;99028.94;8515510;27;20042;-72
2022/06/21 10:41:19;;;;;;;7.63;1.65;;;;;;;19.03;52.24;99040.53;8511654;27;20051;-72
2022/06/21 10:45:58;;;;;;;4.72;1.33;;;;;;;18.75;51.53;99047.09;8493119;27;20081;-72
2022/06/21 10:50:08;;;;;;;2.50;1.30;;;;;;;18.95;52.14;99040.38;8498749;27;20140;-72
2022/06/21 10:54:21;;;;;;;11.43;2.05;;;;;;;18.65;51.42;99053.16;8510037;27;20043;-73
2022/06/21 10:58:43;;;;;;;6.53;1.40;;;;;;;18.79;51.66;99064.34;8521280;27;20047;-73
2022/06/21 11:03:22;;;;;;;10.85;2.08;;;;;;;18.43;52.78;99045.66;8521090;27;20058;-73
2022/06/21 11:07:42;;;;;;;4.28;1.40;;;;;;;18.93;52.67;99053.63;8517097;27;20451;-72
2022/06/21 11:11:43;;;;;;;6.93;1.98;;;;;;;19.44;52.94;99050.56;8514738;27;20058;-73
2022/06/21 11:16:13;;;;;;;3.08;1.52;;;;;;;19.42;51.22;99063.81;8514585;27;20039;-72
2022/06/21 11:20:24;;;;;;;4.55;1.58;;;;;;;19.67;50.50;99054.03;8336080;28;20042;-73
2022/06/21 11:24:42;;;;;;;5.35;1.65;;;;;;;19.86;49.29;99049.59;8334472;28;20060;-72
2022/06/21 11:28:48;;;;;;;4.72;1.60;;;;;;;19.06;51.06;99050.72;8332073;28;20049;-72
2022/06/21 11:32:59;;;;;;;5.47;1.77;;;;;;;18.44;52.58;99052.72;8329181;28;20747;-71
2022/06/21 11:37:00;;;;;;;2.10;1.33;;;;;;;18.17;53.83;99064.69;8340013;28;20049;-72
2022/06/21 11:45:49;;;;;;;4.53;1.42;;;;;;;19.08;52.85;99053.91;8339748;28;20042;-72
2022/06/21 11:50:14;;;;;;;22.40;3.05;;;;;;;18.70;52.99;99050.13;8353118;28;20049;-72
2022/06/21 11:54:24;;;;;;;5.13;1.83;;;;;;;19.15;52.08;99037.56;8369206;27;20046;-72
2022/06/21 11:58:40;;;;;;;3.30;1.60;;;;;;;19.73;50.73;99041.59;8515590;27;20044;-71
2022/06/21 12:03:12;;;;;;;9.07;2.00;;;;;;;19.89;50.04;99037.88;8508771;27;20046;-72
2022/06/21 12:07:18;;;;;;;4.68;1.70;;;;;;;19.74;51.31;99054.16;8384041;28;20056;-72
2022/06/21 12:11:51;;;;;;;8.43;2.05;;;;;;;19.46;51.69;99053.72;8371540;28;20483;-72
2022/06/21 12:16:16;;;;;;;5.55;1.50;;;;;;;19.35;51.94;99050.03;8386728;28;20090;-73
2022/06/21 12:20:21;;;;;;;4.38;1.73;;;;;;;19.17;52.01;99040.75;8381363;28;20179;-72
2022/06/21 12:24:25;;;;;;;5.03;1.77;;;;;;;19.06;52.90;99056.19;8372297;28;20059;-72
2022/06/21 12:28:29;;;;;;;11.38;1.80;;;;;;;19.03;52.85;99062.41;8373315;28;20132;-72
2022/06/21 12:32:30;;;;;;;4.75;1.63;;;;;;;19.12;52.66;99054.75;8335166;28;20052;-72
2022/06/21 12:37:07;;;;;;;3.05;1.90;;;;;;;19.57;51.89;99043.72;8315054;28;20051;-72
2022/06/21 12:41:32;;;;;;;5.38;1.48;;;;;;;20.25;50.73;99051.66;8363111;28;20045;-73
2022/06/21 12:45:40;;;;;;;6.63;1.73;;;;;;;20.27;50.62;99051.28;8431011;28;20119;-72
2022/06/21 12:50:06;;;;;;;2.42;1.70;;;;;;;19.88;48.86;99045.31;8417735;28;20131;-72
2022/06/21 12:54:57;;;;;;;4.07;1.83;;;;;;;19.39;51.33;99048.13;8419394;28;20050;-72
2022/06/21 12:59:03;;;;;;;7.88;2.03;;;;;;;19.09;51.73;99055.47;8327244;28;20140;-72
2022/06/21 13:03:07;;;;;;;11.07;2.38;;;;;;;18.95;52.73;99051.34;8310658;28;20281;-73
2022/06/21 13:07:37;;;;;;;7.18;1.80;;;;;;;19.04;52.61;99050.28;8327157;28;20057;-72
2022/06/21 13:12:01;;;;;;;6.15;2.00;;;;;;;18.97;53.19;99037.28;8318515;28;20209;-72
2022/06/21 13:16:05;;;;;;;9.23;1.90;;;;;;;18.99;52.70;99041.22;8355104;28;20426;-72
2022/06/21 13:20:24;;;;;;;5.78;1.80;;;;;;;19.06;51.71;99026.88;8354591;28;20086;-72
2022/06/21 13:24:58;;;;;;;5.32;1.80;;;;;;;19.34;51.84;99023.81;8345741;28;20045;-71
2022/06/21 13:29:17;;;;;;;7.47;1.90;;;;;;;20.05;51.21;99024.78;8344292;28;20070;-72
2022/06/21 13:33:30;;;;;;;3.13;1.92;;;;;;;20.23;51.06;99025.78;8391467;27;20044;-72
2022/06/21 13:37:54;;;;;;;4.40;1.98;;;;;;;20.42;50.28;99022.09;8484935;27;20039;-72
2022/06/21 13:46:22;;;;;;;3.22;2.10;;;;;;;22.13;45.08;99025.75;8481023;27;20051;-72
2022/06/21 13:50:32;;;;;;;6.28;1.85;;;;;;;22.05;46.10;99018.63;8490608;27;20420;-72
2022/06/21 13:54:53;;;;;;;3.35;1.40;;;;;;;22.02;45.12;99019.41;8483364;27;20544;-72
2022/06/21 13:59:27;;;;;;;2.53;1.70;;;;;;;21.59;45.32;99018.38;8474725;27;20084;-72
2022/06/21 14:03:52;;;;;;;5.10;1.65;;;;;;;21.64;46.68;99015.28;8456888;28;20075;-71
2022/06/21 14:08:25;;;;;;;7.88;1.40;;;;;;;22.50;46.32;99016.41;8444605;28;20074;-71
2022/06/21 14:12:34;;;;;;;3.42;1.40;;;;;;;22.55;43.98;99016.03;8431966;28;20040;-71
2022/06/21 14:16:41;;;;;;;3.28;1.50;;;;;;;22.21;43.74;99008.09;8427213;28;20048;-72
2022/06/21 14:20:58;;;;;;;6.05;1.20;;;;;;;21.83;43.85;99005.97;8434225;28;20535;-71
2022/06/21 14:25:18;;;;;;;4.22;1.40;;;;;;;23.23;41.57;98995.63;8428663;28;20082;-72
2022/06/21 14:29:30;;;;;;;3.72;1.20;;;;;;;22.96;41.42;99006.25;8436232;28;20109;-71
2022/06/21 14:33:52;;;;;;;2.67;1.23;;;;;;;22.48;43.38;99013.25;8457785;28;20073;-72
2022/06/21 14:38:12;;;;;;;5.07;1.20;;;;;;;21.87;43.13;98996.56;8419237;28;20047;-72
2022/06/21 14:42:17;;;;;;;9.23;1.30;;;;;;;21.34;44.51;98995.47;8423536;28;20064;-71
2022/06/21 14:47:02;;;;;;;8.52;1.52;;;;;;;21.23;45.11;98995.41;8402176;28;20059;-71
2022/06/21 14:51:16;;;;;;;3.03;1.15;;;;;;;21.70;44.71;99007.44;8357184;28;20048;-72
2022/06/21 14:55:32;;;;;;;5.32;1.15;;;;;;;23.28;41.43;98999.94;8348830;28;20072;-72
2022/06/21 14:59:51;;;;;;;5.95;1.27;;;;;;;23.27;40.06;98987.34;8323715;28;20056;-72
2022/06/21 15:04:05;;;;;;;6.07;1.30;;;;;;;22.43;41.66;98994.38;8355418;28;20199;-71
2022/06/21 15:08:33;;;;;;;1.80;1.10;;;;;;;23.91;39.21;98988.00;8380502;28;20139;-72
2022/06/21 15:12:42;;;;;;;3.10;1.10;;;;;;;24.65;37.96;98979.31;8356293;28;20469;-71
2022/06/21 15:17:01;;;;;;;3.08;1.27;;;;;;;25.56;36.08;98976.97;8349727;28;20041;-72
2022/06/21 15:21:05;;;;;;;;;;;;;;;25.71;36.14;98974.03;8388198;28;20040;-71
2022/06/21 15:25:15;;;;;;;2.20;1.02;;;;;;;26.00;35.85;98975.25;8419205;28;19927;-72
2022/06/21 15:29:16;;;;;;;10.30;1.35;;;;;;;27.02;32.45;98975.75;8424009;28;20154;-73
2022/06/21 15:33:23;;;;;;;6.50;1.30;;;;;;;28.42;30.70;98972.63;8422717;28;20055;-72
2022/06/21 15:37:51;;;;;;;2.70;1.10;;;;;;;28.83;28.84;98980.41;8431120;28;20073;-72
2022/06/21 15:41:58;;;;;;;1.83;1.00;;;;;;;28.84;29.25;98971.66;8389402;28;20040;-72
2022/06/21 15:46:08;;;;;;;2.25;1.00;;;;;;;28.29;29.70;98974.53;8379828;28;20076;-72
2022/06/21 15:50:16;;;;;;;6.78;1.55;;;;;;;27.54;31.17;98966.94;8416352;28;20513;-72
2022/06/21 15:54:32;;;;;;;3.03;1.10;;;;;;;26.47;33.31;98965.94;8421805;28;20040;-72
2022/06/21 15:58:45;;;;;;;3.83;1.00;;;;;;;26.09;32.54;98956.16;8384013;28;20298;-72
2022/06/21 16:02:52;;;;;;;3.45;1.20;;;;;;;25.38;33.70;98968.03;8394949;28;20055;-72
2022/06/21 16:06:58;;;;;;;3.78;1.15;;;;;;;24.72;34.90;98965.47;8394628;28;20505;-73
2022/06/21 16:11:11;;;;;;;2.20;1.10;;;;;;;24.55;35.99;98960.84;8430990;28;20044;-72
2022/06/21 16:15:48;;;;;;;2.70;1.38;;;;;;;24.44;35.86;98960.13;8433264;28;20097;-73
2022/06/21 16:19:52;;;;;;;4.60;1.35;;;;;;;24.03;36.13;98950.91;8431332;28;20173;-72
2022/06/21 16:24:35;;;;;;;2.50;1.30;;;;;;;23.91;36.28;98961.19;8459686;28;20499;-72
2022/06/21 16:28:54;;;;;;;3.85;1.30;;;;;;;23.71;36.66;98956.56;8327617;28;20092;-72
2022/06/21 16:33:18;;;;;;;2.03;1.00;;;;;;;23.48;36.91;98970.81;8325341;28;21269;-72
2022/06/21 16:37:25;;;;;;;3.88;1.40;;;;;;;23.16;37.67;98971.63;8304745;28;20084;-72
2022/06/21 16:46:02;;;;;;;;;;;;;;;22.44;39.92;98968.44;8327950;28;20045;-72
2022/06/21 16:50:29;;;;;;;2.40;1.42;;;;;;;22.20;40.44;98972.72;8295226;28;19949;-72
2022/06/21 16:54:31;;;;;;;5.25;1.25;;;;;;;24.45;37.60;98961.72;8329944;28;20102;-72
2022/06/21 16:58:48;;;;;;;2.80;1.13;;;;;;;25.02;35.55;98961.28;8383627;28;20055;-71
2022/06/21 17:02:49;;;;;;;6.60;1.17;;;;;;;23.75;37.75;98955.34;8397476;27;20037;-72
2022/06/21 17:06:56;;;;;;;2.88;1.20;;;;;;;22.98;38.55;98959.84;8459152;27;20058;-72
2022/06/21 17:15:34;;;;;;;1.58;1.10;;;;;;;21.83;41.71;98950.97;8495650;27;20058;-71
2022/06/21 17:19:43;;;;;;;4.72;1.10;;;;;;;21.48;42.01;98946.88;8513109;27;20054;-71
2022/06/21 17:24:15;;;;;;;4.25;1.13;;;;;;;21.25;42.60;98949.13;8527281;27;20126;-71
2022/06/21 17:28:34;;;;;;;9.27;1.27;;;;;;;21.02;43.28;98937.56;8495752;27;20055;-73
2022/06/21 17:32:47;;;;;;;1.67;1.00;;;;;;;20.89;43.92;98939.03;8530063;27;20046;-72
2022/06/21 17:36:57;;;;;;;5.53;1.52;;;;;;;20.72;44.32;98942.44;8476294;27;20046;-71
2022/06/21 17:41:07;;;;;;;3.15;1.10;;;;;;;20.64;45.15;98942.38;8516956;27;20458;-72
2022/06/21 17:45:21;;;;;;;3.50;1.38;;;;;;;20.48;45.57;98933.59;8530490;27;20049;-72
2022/06/21 17:49:51;;;;;;;4.18;1.20;;;;;;;20.27;45.90;98927.88;8505126;27;20068;-71
2022/06/21 17:54:09;;;;;;;4.78;1.45;;;;;;;20.27;45.45;98938.84;8347384;28;20045;-71
2022/06/21 17:58:31;;;;;;;7.07;1.30;;;;;;;20.11;46.01;98935.56;8361893;28;20098;-71
2022/06/21 18:02:39;;;;;;;5.20;1.42;;;;;;;19.93;46.81;98937.34;8382602;28;20044;-72
2022/06/21 18:06:48;;;;;;;3.67;1.10;;;;;;;19.80;47.54;98937.56;8369560;28;20052;-71
2022/06/21 18:11:07;;;;;;;3.10;1.08;;;;;;;19.64;48.56;98945.22;8377235;28;20052;-72
2022/06/21 18:15:09;;;;;;;3.28;1.30;;;;;;;19.43;49.25;98939.44;8391289;28;20055;-72
2022/06/21 18:19:27;;;;;;;4.15;1.17;;;;;;;19.26;50.18;98945.44;8390762;28;20545;-71
2022/06/21 18:23:45;;;;;;;7.07;1.40;;;;;;;19.10;51.21;98953.03;8374449;28;20044;-71
2022/06/21 18:28:15;;;;;;;5.03;1.30;;;;;;;18.89;52.56;98959.75;8392878;28;20060;-71
2022/06/21 18:32:40;;;;;;;2.15;1.17;;;;;;;18.70;53.50;98962.59;8451038;28;20052;-71
2022/06/21 18:36:42;;;;;;;3.65;1.45;;;;;;;18.49;54.25;98962.19;8432461;28;20050;-72
2022/06/21 18:40:59;;;;;;;3.63;1.15;;;;;;;18.26;55.53;98975.03;8457346;28;20485;-74
2022/06/21 18:45:08;;;;;;;1.83;1.08;;;;;;;18.06;56.32;98977.81;8457251;28;20039;-72
2022/06/21 18:49:21;;;;;;;2.25;1.30;;;;;;;17.90;57.53;98962.66;8440631;27;20109;-72
2022/06/21 18:53:32;;;;;;;15.80;2.65;;;;;;;17.72;57.28;98970.47;8449990;28;20063;-72
2022/06/21 18:57:36;;;;;;;13.60;1.80;;;;;;;17.58;58.03;98973.69;8447261;27;20035;-72
2022/06/21 19:02:10;;;;;;;5.65;1.33;;;;;;;17.44;58.49;98978.06;8446527;28;20063;-72
2022/06/21 19:11:06;;;;;;;3.85;1.30;;;;;;;17.12;59.50;98978.13;8441001;28;20047;-71
2022/06/21 19:15:25;;;;;;;5.22;1.77;;;;;;;16.90;60.01;98981.50;8451282;28;20048;-72
2022/06/21 19:19:52;;;;;;;6.03;1.50;;;;;;;16.77;60.98;98977.25;8467098;27;20096;-71
2022/06/21 19:23:57;;;;;;;6.93;1.80;;;;;;;16.64;60.85;98973.06;8447695;28;21234;-71
2022/06/21 19:28:19;;;;;;;4.72;2.00;;;;;;;16.58;61.24;98980.66;8458023;27;20138;-71
2022/06/21 19:33:00;;;;;;;3.63;1.85;;;;;;;16.48;61.25;98987.44;8515412;27;20043;-71
2022/06/21 19:37:01;;;;;;;8.25;1.80;;;;;;;16.34;61.76;98997.16;8347490;28;20045;-71
2022/06/21 19:41:18;;;;;;;3.67;1.67;;;;;;;16.16;62.81;98996.69;8351129;28;20430;-72
2022/06/21 19:45:32;;;;;;;3.72;1.92;;;;;;;15.99;63.50;98997.00;8345364;28;20490;-72
2022/06/21 19:49:38;;;;;;;5.80;2.40;;;;;;;15.89;63.62;98998.28;8353384;28;20049;-71
2022/06/21 19:53:42;;;;;;;6.45;2.10;;;;;;;15.76;63.92;99004.09;8343008;28;20075;-71
2022/06/21 19:57:45;;;;;;;11.38;2.05;;;;;;;15.57;64.76;99008.25;8360557;28;20072;-72
2022/06/21 20:02:08;;;;;;;7.82;2.47;;;;;;;15.40;65.89;99008.47;8340632;28;20411;-72
2022/06/21 20:06:18;;;;;;;8.32;3.10;;;;;;;15.25;66.08;99013.81;8332936;28;20048;-72
2022/06/21 20:10:30;;;;;;;8.65;3.30;;;;;;;15.12;66.12;99019.25;8425796;28;20040;-72
2022/06/21 20:14:57;;;;;;;8.63;3.58;;;;;;;14.94;66.42;99038.88;8401279;28;20617;-72
2022/06/21 20:19:41;;;;;;;17.52;5.20;;;;;;;14.75;66.75;99037.47;8421348;28;20093;-71
2022/06/21 20:24:03;;;;;;;12.05;4.38;;;;;;;14.65;67.34;99043.34;8421219;28;20134;-71